Terminal Aerodrome Forecast
Issued by NWS

Current Version | Previous Version | Text Only | Print | Product List | Glossary On
Versions: 1 2 3 4 5 6 7 8 9 10 11 12 13
000
FTUS44 KEPZ 260300 AAA
TAFLRU
TAF AMD
KLRU 260350Z 2604/2624 35015G25KT P6SM FEW250
     FM260900 28009KT P6SM SKC
     FM261800 23010G20KT P6SM FEW250=

USA.gov is the U.S. government's official web portal to all federal, state and local government web resources and services.